sensor_id;sensor_type;location;lat;lon;timestamp;temperature;humidity
21582;DHT22;10952;50.836;4.348;2023-02-28T00:01:41;4.10;99.90
21582;DHT22;10952;50.836;4.348;2023-02-28T00:04:09;4.20;99.90
21582;DHT22;10952;50.836;4.348;2023-02-28T00:06:38;4.10;99.90
21582;DHT22;10952;50.836;4.348;2023-02-28T00:09:07;4.10;99.90
21582;DHT22;10952;50.836;4.348;2023-02-28T00:11:36;4.20;99.90
21582;DHT22;10952;50.836;4.348;2023-02-28T00:14:06;4.30;99.90
21582;DHT22;10952;50.836;4.348;2023-02-28T00:16:35;4.30;99.90
21582;DHT22;10952;50.836;4.348;2023-02-28T00:19:06;4.10;99.90
21582;DHT22;10952;50.836;4.348;2023-02-28T00:21:35;4.10;99.90
21582;DHT22;10952;50.836;4.348;2023-02-28T00:24:05;4.10;99.90
21582;DHT22;10952;50.836;4.348;2023-02-28T00:26:34;4.10;99.90
21582;DHT22;10952;50.836;4.348;2023-02-28T00:29:02;4.10;99.90
21582;DHT22;10952;50.836;4.348;2023-02-28T00:31:29;4.00;99.90
21582;DHT22;10952;50.836;4.348;2023-02-28T00:33:55;4.00;99.90
21582;DHT22;10952;50.836;4.348;2023-02-28T00:36:23;3.90;99.90
21582;DHT22;10952;50.836;4.348;2023-02-28T00:38:52;3.80;99.90
21582;DHT22;10952;50.836;4.348;2023-02-28T00:41:19;3.80;99.90
21582;DHT22;10952;50.836;4.348;2023-02-28T00:43:45;3.60;99.90
21582;DHT22;10952;50.836;4.348;2023-02-28T00:46:14;3.70;99.90
21582;DHT22;10952;50.836;4.348;2023-02-28T00:48:43;3.70;99.90
21582;DHT22;10952;50.836;4.348;2023-02-28T00:51:22;3.80;99.90
21582;DHT22;10952;50.836;4.348;2023-02-28T00:53:49;3.80;99.90
21582;DHT22;10952;50.836;4.348;2023-02-28T00:56:17;3.80;99.90
21582;DHT22;10952;50.836;4.348;2023-02-28T00:58:46;3.90;99.90
21582;DHT22;10952;50.836;4.348;2023-02-28T01:01:14;3.80;99.90
21582;DHT22;10952;50.836;4.348;2023-02-28T01:03:43;3.70;99.90
21582;DHT22;10952;50.836;4.348;2023-02-28T01:06:09;3.80;99.90
21582;DHT22;10952;50.836;4.348;2023-02-28T01:08:36;4.00;99.90
21582;DHT22;10952;50.836;4.348;2023-02-28T01:11:11;4.00;99.90
21582;DHT22;10952;50.836;4.348;2023-02-28T01:13:42;3.90;99.90
21582;DHT22;10952;50.836;4.348;2023-02-28T01:16:10;3.90;99.90
21582;DHT22;10952;50.836;4.348;2023-02-28T01:18:38;3.90;99.90
21582;DHT22;10952;50.836;4.348;2023-02-28T01:21:13;3.80;99.90
21582;DHT22;10952;50.836;4.348;2023-02-28T01:23:42;3.70;99.90
21582;DHT22;10952;50.836;4.348;2023-02-28T01:26:22;3.80;99.90
21582;DHT22;10952;50.836;4.348;2023-02-28T01:28:52;3.90;99.90
21582;DHT22;10952;50.836;4.348;2023-02-28T01:31:50;3.90;99.90
21582;DHT22;10952;50.836;4.348;2023-02-28T01:34:19;3.90;99.90
21582;DHT22;10952;50.836;4.348;2023-02-28T01:36:47;3.90;99.90
21582;DHT22;10952;50.836;4.348;2023-02-28T01:39:16;3.80;99.90
21582;DHT22;10952;50.836;4.348;2023-02-28T01:41:43;3.80;99.90
21582;DHT22;10952;50.836;4.348;2023-02-28T01:47:36;3.70;99.90
21582;DHT22;10952;50.836;4.348;2023-02-28T01:50:06;3.70;99.90
21582;DHT22;10952;50.836;4.348;2023-02-28T01:52:34;3.60;99.90
21582;DHT22;10952;50.836;4.348;2023-02-28T01:55:02;3.70;99.90
21582;DHT22;10952;50.836;4.348;2023-02-28T01:57:33;3.60;99.90
21582;DHT22;10952;50.836;4.348;2023-02-28T02:00:10;3.50;99.90
21582;DHT22;10952;50.836;4.348;2023-02-28T02:02:47;3.50;99.90
21582;DHT22;10952;50.836;4.348;2023-02-28T02:05:19;3.40;99.90
21582;DHT22;10952;50.836;4.348;2023-02-28T02:07:47;3.60;99.90
21582;DHT22;10952;50.836;4.348;2023-02-28T02:10:17;3.60;99.90
21582;DHT22;10952;50.836;4.348;2023-02-28T02:15:39;3.40;99.90
21582;DHT22;10952;50.836;4.348;2023-02-28T02:18:17;3.50;99.90
21582;DHT22;10952;50.836;4.348;2023-02-28T02:21:05;3.40;99.90
21582;DHT22;10952;50.836;4.348;2023-02-28T02:35:24;3.50;99.90
21582;DHT22;10952;50.836;4.348;2023-02-28T02:38:00;3.50;99.90
21582;DHT22;10952;50.836;4.348;2023-02-28T02:40:42;3.40;99.90
21582;DHT22;10952;50.836;4.348;2023-02-28T02:43:35;3.30;99.90
21582;DHT22;10952;50.836;4.348;2023-02-28T02:46:10;3.30;99.90
21582;DHT22;10952;50.836;4.348;2023-02-28T02:48:39;3.20;99.90
21582;DHT22;10952;50.836;4.348;2023-02-28T02:51:16;3.30;99.90
21582;DHT22;10952;50.836;4.348;2023-02-28T02:56:33;3.40;99.90
21582;DHT22;10952;50.836;4.348;2023-02-28T02:59:06;3.20;99.90
21582;DHT22;10952;50.836;4.348;2023-02-28T03:01:36;3.10;99.90
21582;DHT22;10952;50.836;4.348;2023-02-28T03:04:11;3.10;99.90
21582;DHT22;10952;50.836;4.348;2023-02-28T03:06:41;3.30;99.90
21582;DHT22;10952;50.836;4.348;2023-02-28T03:09:07;3.40;99.90
21582;DHT22;10952;50.836;4.348;2023-02-28T03:11:37;3.30;99.90
21582;DHT22;10952;50.836;4.348;2023-02-28T03:26:24;2.90;99.90
21582;DHT22;10952;50.836;4.348;2023-02-28T03:29:21;3.00;99.90
21582;DHT22;10952;50.836;4.348;2023-02-28T03:31:57;3.10;99.90
21582;DHT22;10952;50.836;4.348;2023-02-28T03:34:37;3.10;99.90
21582;DHT22;10952;50.836;4.348;2023-02-28T03:37:18;3.10;99.90
21582;DHT22;10952;50.836;4.348;2023-02-28T03:40:02;3.10;99.90
21582;DHT22;10952;50.836;4.348;2023-02-28T03:42:36;3.20;99.90
21582;DHT22;10952;50.836;4.348;2023-02-28T03:45:20;3.10;99.90
21582;DHT22;10952;50.836;4.348;2023-02-28T03:48:01;3.10;99.90
21582;DHT22;10952;50.836;4.348;2023-02-28T03:50:52;2.90;99.90
21582;DHT22;10952;50.836;4.348;2023-02-28T03:53:25;2.80;99.90
21582;DHT22;10952;50.836;4.348;2023-02-28T03:56:19;2.90;99.90
21582;DHT22;10952;50.836;4.348;2023-02-28T03:59:08;3.00;99.90
21582;DHT22;10952;50.836;4.348;2023-02-28T04:01:40;2.90;99.90
21582;DHT22;10952;50.836;4.348;2023-02-28T04:04:08;3.00;99.90
21582;DHT22;10952;50.836;4.348;2023-02-28T04:06:37;3.00;99.90
21582;DHT22;10952;50.836;4.348;2023-02-28T04:09:07;2.90;99.90
21582;DHT22;10952;50.836;4.348;2023-02-28T04:11:50;2.90;99.90
21582;DHT22;10952;50.836;4.348;2023-02-28T04:14:21;2.80;99.90
21582;DHT22;10952;50.836;4.348;2023-02-28T04:16:48;2.50;99.90
21582;DHT22;10952;50.836;4.348;2023-02-28T04:19:17;2.70;99.90
21582;DHT22;10952;50.836;4.348;2023-02-28T04:21:47;2.80;99.90
21582;DHT22;10952;50.836;4.348;2023-02-28T04:24:15;3.00;99.90
21582;DHT22;10952;50.836;4.348;2023-02-28T04:26:46;2.80;99.90
21582;DHT22;10952;50.836;4.348;2023-02-28T04:29:31;2.60;99.90
21582;DHT22;10952;50.836;4.348;2023-02-28T04:31:59;2.70;99.90
21582;DHT22;10952;50.836;4.348;2023-02-28T04:34:29;2.80;99.90
21582;DHT22;10952;50.836;4.348;2023-02-28T04:36:56;2.80;99.90
21582;DHT22;10952;50.836;4.348;2023-02-28T04:39:25;2.90;99.90
21582;DHT22;10952;50.836;4.348;2023-02-28T04:41:53;2.80;99.90
21582;DHT22;10952;50.836;4.348;2023-02-28T04:44:22;2.90;99.90
21582;DHT22;10952;50.836;4.348;2023-02-28T04:46:48;2.90;99.90
21582;DHT22;10952;50.836;4.348;2023-02-28T04:49:15;2.90;99.90
21582;DHT22;10952;50.836;4.348;2023-02-28T04:51:41;2.80;99.90
21582;DHT22;10952;50.836;4.348;2023-02-28T04:54:07;2.60;99.90
21582;DHT22;10952;50.836;4.348;2023-02-28T04:56:34;2.50;99.90
21582;DHT22;10952;50.836;4.348;2023-02-28T05:05:44;2.50;99.90
21582;DHT22;10952;50.836;4.348;2023-02-28T05:08:11;2.50;99.90
21582;DHT22;10952;50.836;4.348;2023-02-28T05:10:36;2.60;99.90
21582;DHT22;10952;50.836;4.348;2023-02-28T05:13:02;2.70;99.90
21582;DHT22;10952;50.836;4.348;2023-02-28T05:15:31;2.80;99.90
21582;DHT22;10952;50.836;4.348;2023-02-28T05:17:56;2.90;99.90
21582;DHT22;10952;50.836;4.348;2023-02-28T05:20:24;2.80;99.90
21582;DHT22;10952;50.836;4.348;2023-02-28T05:22:50;2.70;99.90
21582;DHT22;10952;50.836;4.348;2023-02-28T05:25:21;2.70;99.90
21582;DHT22;10952;50.836;4.348;2023-02-28T05:27:48;2.70;99.90
21582;DHT22;10952;50.836;4.348;2023-02-28T05:30:19;2.80;99.90
21582;DHT22;10952;50.836;4.348;2023-02-28T05:32:52;3.00;99.90
21582;DHT22;10952;50.836;4.348;2023-02-28T05:35:22;2.80;99.90
21582;DHT22;10952;50.836;4.348;2023-02-28T05:37:50;2.80;99.90
21582;DHT22;10952;50.836;4.348;2023-02-28T05:40:16;2.90;99.90
21582;DHT22;10952;50.836;4.348;2023-02-28T05:42:43;2.90;99.90
21582;DHT22;10952;50.836;4.348;2023-02-28T05:45:29;3.10;99.90
21582;DHT22;10952;50.836;4.348;2023-02-28T05:47:55;3.10;99.90
21582;DHT22;10952;50.836;4.348;2023-02-28T05:50:21;3.10;99.90
21582;DHT22;10952;50.836;4.348;2023-02-28T05:52:53;3.20;99.90
21582;DHT22;10952;50.836;4.348;2023-02-28T05:55:19;3.10;99.90
21582;DHT22;10952;50.836;4.348;2023-02-28T05:57:47;3.20;99.90
21582;DHT22;10952;50.836;4.348;2023-02-28T06:00:18;3.10;99.90
21582;DHT22;10952;50.836;4.348;2023-02-28T06:02:44;3.10;99.90
21582;DHT22;10952;50.836;4.348;2023-02-28T06:05:15;3.20;99.90
21582;DHT22;10952;50.836;4.348;2023-02-28T06:07:42;3.20;99.90
21582;DHT22;10952;50.836;4.348;2023-02-28T06:10:09;3.30;99.90
21582;DHT22;10952;50.836;4.348;2023-02-28T06:12:35;3.40;99.90
21582;DHT22;10952;50.836;4.348;2023-02-28T06:15:01;3.30;99.90
21582;DHT22;10952;50.836;4.348;2023-02-28T06:17:26;3.20;99.90
21582;DHT22;10952;50.836;4.348;2023-02-28T06:19:52;3.40;99.90
21582;DHT22;10952;50.836;4.348;2023-02-28T06:22:20;3.50;99.90
21582;DHT22;10952;50.836;4.348;2023-02-28T06:24:48;3.60;99.90
21582;DHT22;10952;50.836;4.348;2023-02-28T06:27:17;3.50;99.90
21582;DHT22;10952;50.836;4.348;2023-02-28T06:29:45;3.50;99.90
21582;DHT22;10952;50.836;4.348;2023-02-28T06:32:14;3.50;99.90
21582;DHT22;10952;50.836;4.348;2023-02-28T06:34:43;3.50;99.90
21582;DHT22;10952;50.836;4.348;2023-02-28T06:37:10;3.40;99.90
21582;DHT22;10952;50.836;4.348;2023-02-28T06:39:38;3.70;99.90
21582;DHT22;10952;50.836;4.348;2023-02-28T06:42:06;3.70;99.90
21582;DHT22;10952;50.836;4.348;2023-02-28T06:44:34;3.70;99.90
21582;DHT22;10952;50.836;4.348;2023-02-28T06:47:04;3.60;99.90
21582;DHT22;10952;50.836;4.348;2023-02-28T06:49:34;3.60;99.90
21582;DHT22;10952;50.836;4.348;2023-02-28T06:52:00;3.70;99.90
21582;DHT22;10952;50.836;4.348;2023-02-28T06:54:26;3.90;99.90
21582;DHT22;10952;50.836;4.348;2023-02-28T06:56:56;3.80;99.90
21582;DHT22;10952;50.836;4.348;2023-02-28T06:59:25;3.80;99.90
21582;DHT22;10952;50.836;4.348;2023-02-28T07:01:51;3.90;99.90
21582;DHT22;10952;50.836;4.348;2023-02-28T07:04:18;3.90;99.90
21582;DHT22;10952;50.836;4.348;2023-02-28T07:06:47;4.00;99.90
21582;DHT22;10952;50.836;4.348;2023-02-28T07:09:13;4.10;99.90
21582;DHT22;10952;50.836;4.348;2023-02-28T07:11:41;4.00;99.90
21582;DHT22;10952;50.836;4.348;2023-02-28T07:14:08;4.00;99.90
21582;DHT22;10952;50.836;4.348;2023-02-28T07:16:37;4.10;99.90
21582;DHT22;10952;50.836;4.348;2023-02-28T07:19:03;4.10;99.90
21582;DHT22;10952;50.836;4.348;2023-02-28T07:21:30;4.10;99.90
21582;DHT22;10952;50.836;4.348;2023-02-28T07:23:56;4.00;99.90
21582;DHT22;10952;50.836;4.348;2023-02-28T07:26:22;4.00;99.90
21582;DHT22;10952;50.836;4.348;2023-02-28T07:28:50;4.20;99.90
21582;DHT22;10952;50.836;4.348;2023-02-28T07:31:16;4.30;99.90
21582;DHT22;10952;50.836;4.348;2023-02-28T07:33:45;4.50;99.90
21582;DHT22;10952;50.836;4.348;2023-02-28T07:36:14;4.50;99.90
21582;DHT22;10952;50.836;4.348;2023-02-28T07:38:47;4.60;99.90
21582;DHT22;10952;50.836;4.348;2023-02-28T07:41:22;4.70;99.90
21582;DHT22;10952;50.836;4.348;2023-02-28T07:43:54;4.60;99.90
21582;DHT22;10952;50.836;4.348;2023-02-28T07:46:24;4.50;99.90
21582;DHT22;10952;50.836;4.348;2023-02-28T07:48:52;4.30;99.90
21582;DHT22;10952;50.836;4.348;2023-02-28T07:51:22;4.50;99.90
21582;DHT22;10952;50.836;4.348;2023-02-28T07:53:51;4.40;99.90
21582;DHT22;10952;50.836;4.348;2023-02-28T07:56:19;4.30;99.90
21582;DHT22;10952;50.836;4.348;2023-02-28T07:58:48;4.10;99.90
21582;DHT22;10952;50.836;4.348;2023-02-28T08:01:15;4.30;99.90
21582;DHT22;10952;50.836;4.348;2023-02-28T08:03:43;4.20;99.90
21582;DHT22;10952;50.836;4.348;2023-02-28T08:06:22;4.40;99.90
21582;DHT22;10952;50.836;4.348;2023-02-28T08:08:52;4.10;99.90
21582;DHT22;10952;50.836;4.348;2023-02-28T08:11:19;4.20;99.90
21582;DHT22;10952;50.836;4.348;2023-02-28T08:13:48;4.20;99.90
21582;DHT22;10952;50.836;4.348;2023-02-28T08:16:15;4.40;99.90
21582;DHT22;10952;50.836;4.348;2023-02-28T08:18:51;4.40;99.90
21582;DHT22;10952;50.836;4.348;2023-02-28T08:21:20;4.50;99.90
21582;DHT22;10952;50.836;4.348;2023-02-28T08:23:50;4.40;99.90
21582;DHT22;10952;50.836;4.348;2023-02-28T08:26:18;4.50;99.90
21582;DHT22;10952;50.836;4.348;2023-02-28T08:28:46;4.50;99.90
21582;DHT22;10952;50.836;4.348;2023-02-28T08:31:18;4.60;99.90
21582;DHT22;10952;50.836;4.348;2023-02-28T08:33:46;4.70;99.90
21582;DHT22;10952;50.836;4.348;2023-02-28T08:36:16;4.50;99.90
21582;DHT22;10952;50.836;4.348;2023-02-28T08:38:44;4.60;99.90
21582;DHT22;10952;50.836;4.348;2023-02-28T08:41:12;4.70;99.90
21582;DHT22;10952;50.836;4.348;2023-02-28T08:43:38;4.50;99.90
21582;DHT22;10952;50.836;4.348;2023-02-28T08:46:05;4.50;99.90
21582;DHT22;10952;50.836;4.348;2023-02-28T08:48:32;4.40;99.90
21582;DHT22;10952;50.836;4.348;2023-02-28T08:51:01;4.40;99.90
21582;DHT22;10952;50.836;4.348;2023-02-28T08:53:26;4.30;99.90
21582;DHT22;10952;50.836;4.348;2023-02-28T08:56:00;4.10;99.90
21582;DHT22;10952;50.836;4.348;2023-02-28T08:58:27;4.10;99.90
21582;DHT22;10952;50.836;4.348;2023-02-28T09:00:52;4.10;99.90
21582;DHT22;10952;50.836;4.348;2023-02-28T09:03:19;4.00;99.90
21582;DHT22;10952;50.836;4.348;2023-02-28T09:05:56;4.10;99.90
21582;DHT22;10952;50.836;4.348;2023-02-28T09:08:23;4.20;99.90
21582;DHT22;10952;50.836;4.348;2023-02-28T09:10:50;4.30;99.90
21582;DHT22;10952;50.836;4.348;2023-02-28T09:13:17;4.30;99.90
21582;DHT22;10952;50.836;4.348;2023-02-28T09:15:42;4.40;99.90
21582;DHT22;10952;50.836;4.348;2023-02-28T09:18:08;4.20;99.90
21582;DHT22;10952;50.836;4.348;2023-02-28T09:20:38;4.20;99.90
21582;DHT22;10952;50.836;4.348;2023-02-28T09:23:04;4.30;99.90
21582;DHT22;10952;50.836;4.348;2023-02-28T09:25:29;4.20;99.90
21582;DHT22;10952;50.836;4.348;2023-02-28T09:27:55;4.20;99.90
21582;DHT22;10952;50.836;4.348;2023-02-28T09:30:20;4.30;99.90
21582;DHT22;10952;50.836;4.348;2023-02-28T09:32:46;4.20;99.90
21582;DHT22;10952;50.836;4.348;2023-02-28T09:35:18;4.10;99.90
21582;DHT22;10952;50.836;4.348;2023-02-28T09:37:43;4.20;99.90
21582;DHT22;10952;50.836;4.348;2023-02-28T09:40:10;4.30;99.90
21582;DHT22;10952;50.836;4.348;2023-02-28T09:42:38;4.20;99.90
21582;DHT22;10952;50.836;4.348;2023-02-28T09:45:20;4.30;99.90
21582;DHT22;10952;50.836;4.348;2023-02-28T09:47:48;4.50;99.90
21582;DHT22;10952;50.836;4.348;2023-02-28T09:50:33;4.60;99.90
21582;DHT22;10952;50.836;4.348;2023-02-28T09:53:06;4.60;99.90
21582;DHT22;10952;50.836;4.348;2023-02-28T09:55:49;4.60;99.90
21582;DHT22;10952;50.836;4.348;2023-02-28T09:58:28;4.60;99.90
21582;DHT22;10952;50.836;4.348;2023-02-28T10:06:20;5.00;99.90
21582;DHT22;10952;50.836;4.348;2023-02-28T10:09:03;5.10;99.90
21582;DHT22;10952;50.836;4.348;2023-02-28T10:11:33;5.00;99.90
21582;DHT22;10952;50.836;4.348;2023-02-28T10:14:21;5.00;99.90
21582;DHT22;10952;50.836;4.348;2023-02-28T10:17:13;5.10;99.90
21582;DHT22;10952;50.836;4.348;2023-02-28T10:22:15;5.20;99.90
21582;DHT22;10952;50.836;4.348;2023-02-28T10:24:45;5.10;99.90
21582;DHT22;10952;50.836;4.348;2023-02-28T10:27:20;5.00;99.90
21582;DHT22;10952;50.836;4.348;2023-02-28T10:29:49;5.00;99.90
21582;DHT22;10952;50.836;4.348;2023-02-28T10:32:18;5.00;99.90
21582;DHT22;10952;50.836;4.348;2023-02-28T10:34:44;5.10;99.90
21582;DHT22;10952;50.836;4.348;2023-02-28T10:37:13;5.20;99.90
21582;DHT22;10952;50.836;4.348;2023-02-28T10:39:42;5.10;99.90
21582;DHT22;10952;50.836;4.348;2023-02-28T10:42:25;5.10;99.90
21582;DHT22;10952;50.836;4.348;2023-02-28T10:47:42;5.10;99.90
21582;DHT22;10952;50.836;4.348;2023-02-28T10:50:39;5.30;99.90
21582;DHT22;10952;50.836;4.348;2023-02-28T10:55:37;5.50;99.90
21582;DHT22;10952;50.836;4.348;2023-02-28T10:58:02;5.60;99.90
21582;DHT22;10952;50.836;4.348;2023-02-28T11:00:34;6.00;99.90
21582;DHT22;10952;50.836;4.348;2023-02-28T11:03:01;6.70;99.80
21582;DHT22;10952;50.836;4.348;2023-02-28T11:05:32;8.50;97.30
21582;DHT22;10952;50.836;4.348;2023-02-28T11:10:36;11.90;88.60
21582;DHT22;10952;50.836;4.348;2023-02-28T11:13:02;12.20;85.20
21582;DHT22;10952;50.836;4.348;2023-02-28T11:15:38;12.80;83.20
21582;DHT22;10952;50.836;4.348;2023-02-28T11:18:29;14.20;80.30
21582;DHT22;10952;50.836;4.348;2023-02-28T11:20:58;15.60;76.00
21582;DHT22;10952;50.836;4.348;2023-02-28T11:23:29;16.50;71.40
21582;DHT22;10952;50.836;4.348;2023-02-28T11:26:00;16.70;70.10
21582;DHT22;10952;50.836;4.348;2023-02-28T11:28:38;15.20;70.20
21582;DHT22;10952;50.836;4.348;2023-02-28T11:33:55;15.80;68.90
21582;DHT22;10952;50.836;4.348;2023-02-28T11:36:24;15.40;68.60
21582;DHT22;10952;50.836;4.348;2023-02-28T11:38:51;15.40;69.20
21582;DHT22;10952;50.836;4.348;2023-02-28T11:44:28;15.10;67.60
21582;DHT22;10952;50.836;4.348;2023-02-28T11:47:17;14.10;70.20
21582;DHT22;10952;50.836;4.348;2023-02-28T11:55:19;15.60;66.30
21582;DHT22;10952;50.836;4.348;2023-02-28T11:57:55;15.80;65.60
21582;DHT22;10952;50.836;4.348;2023-02-28T12:00:43;16.00;65.50
21582;DHT22;10952;50.836;4.348;2023-02-28T12:05:46;16.00;64.20
21582;DHT22;10952;50.836;4.348;2023-02-28T12:11:34;16.80;64.50
21582;DHT22;10952;50.836;4.348;2023-02-28T12:28:27;15.20;62.90
21582;DHT22;10952;50.836;4.348;2023-02-28T12:31:00;15.00;63.00
21582;DHT22;10952;50.836;4.348;2023-02-28T12:33:31;14.10;64.00
21582;DHT22;10952;50.836;4.348;2023-02-28T12:36:03;14.40;64.90
21582;DHT22;10952;50.836;4.348;2023-02-28T12:38:48;14.60;64.30
21582;DHT22;10952;50.836;4.348;2023-02-28T12:44:12;13.60;65.50
21582;DHT22;10952;50.836;4.348;2023-02-28T12:46:43;13.30;65.90
21582;DHT22;10952;50.836;4.348;2023-02-28T12:51:57;13.10;66.30
21582;DHT22;10952;50.836;4.348;2023-02-28T12:54:49;13.30;65.80
21582;DHT22;10952;50.836;4.348;2023-02-28T12:57:28;13.00;65.90
21582;DHT22;10952;50.836;4.348;2023-02-28T13:00:04;12.70;65.70
21582;DHT22;10952;50.836;4.348;2023-02-28T13:03:15;13.00;66.80
21582;DHT22;10952;50.836;4.348;2023-02-28T13:19:36;12.40;67.50
21582;DHT22;10952;50.836;4.348;2023-02-28T13:22:03;12.60;66.70
21582;DHT22;10952;50.836;4.348;2023-02-28T13:29:38;11.90;68.10
21582;DHT22;10952;50.836;4.348;2023-02-28T13:39:57;10.60;70.80
21582;DHT22;10952;50.836;4.348;2023-02-28T13:47:43;10.10;72.20
21582;DHT22;10952;50.836;4.348;2023-02-28T14:01:32;8.50;73.10
21582;DHT22;10952;50.836;4.348;2023-02-28T14:07:01;8.60;74.20
21582;DHT22;10952;50.836;4.348;2023-02-28T14:09:34;8.50;73.90
21582;DHT22;10952;50.836;4.348;2023-02-28T14:17:55;7.90;75.60
21582;DHT22;10952;50.836;4.348;2023-02-28T14:20:22;8.20;75.70
21582;DHT22;10952;50.836;4.348;2023-02-28T14:23:14;8.10;76.00
21582;DHT22;10952;50.836;4.348;2023-02-28T14:26:04;7.90;76.00
21582;DHT22;10952;50.836;4.348;2023-02-28T14:31:13;8.00;76.40
21582;DHT22;10952;50.836;4.348;2023-02-28T14:36:31;8.10;76.00
21582;DHT22;10952;50.836;4.348;2023-02-28T14:39:03;8.10;76.40
21582;DHT22;10952;50.836;4.348;2023-02-28T14:41:32;8.10;77.70
21582;DHT22;10952;50.836;4.348;2023-02-28T14:44:13;8.10;77.10
21582;DHT22;10952;50.836;4.348;2023-02-28T14:46:41;8.40;76.90
21582;DHT22;10952;50.836;4.348;2023-02-28T14:49:21;8.50;76.20
21582;DHT22;10952;50.836;4.348;2023-02-28T14:51:49;8.60;76.20
21582;DHT22;10952;50.836;4.348;2023-02-28T14:54:16;8.40;76.20
21582;DHT22;10952;50.836;4.348;2023-02-28T14:56:48;8.30;76.30
21582;DHT22;10952;50.836;4.348;2023-02-28T14:59:28;8.30;76.70
21582;DHT22;10952;50.836;4.348;2023-02-28T15:02:21;8.50;76.90
21582;DHT22;10952;50.836;4.348;2023-02-28T15:05:10;8.60;77.10
21582;DHT22;10952;50.836;4.348;2023-02-28T15:07:43;8.60;76.70
21582;DHT22;10952;50.836;4.348;2023-02-28T15:10:22;8.70;77.50
21582;DHT22;10952;50.836;4.348;2023-02-28T15:13:05;8.60;76.60
21582;DHT22;10952;50.836;4.348;2023-02-28T15:15:41;8.50;77.00
21582;DHT22;10952;50.836;4.348;2023-02-28T15:21:17;8.60;78.00
21582;DHT22;10952;50.836;4.348;2023-02-28T15:23:46;8.70;78.00
21582;DHT22;10952;50.836;4.348;2023-02-28T15:26:21;8.60;77.70
21582;DHT22;10952;50.836;4.348;2023-02-28T15:28:52;8.60;77.70
21582;DHT22;10952;50.836;4.348;2023-02-28T15:31:23;8.80;77.90
21582;DHT22;10952;50.836;4.348;2023-02-28T15:34:03;8.50;77.60
21582;DHT22;10952;50.836;4.348;2023-02-28T15:36:32;8.50;78.50
21582;DHT22;10952;50.836;4.348;2023-02-28T15:39:00;8.60;78.90
21582;DHT22;10952;50.836;4.348;2023-02-28T15:41:30;8.50;79.10
21582;DHT22;10952;50.836;4.348;2023-02-28T15:44:27;8.50;79.40
21582;DHT22;10952;50.836;4.348;2023-02-28T15:47:19;8.40;79.20
21582;DHT22;10952;50.836;4.348;2023-02-28T15:49:49;8.20;79.50
21582;DHT22;10952;50.836;4.348;2023-02-28T15:52:34;8.30;80.10
21582;DHT22;10952;50.836;4.348;2023-02-28T15:57:39;8.40;79.70
21582;DHT22;10952;50.836;4.348;2023-02-28T16:00:11;8.60;80.10
21582;DHT22;10952;50.836;4.348;2023-02-28T16:02:38;8.70;79.60
21582;DHT22;10952;50.836;4.348;2023-02-28T16:07:42;8.20;80.20
21582;DHT22;10952;50.836;4.348;2023-02-28T16:10:11;8.10;80.30
21582;DHT22;10952;50.836;4.348;2023-02-28T16:12:40;8.20;80.70
21582;DHT22;10952;50.836;4.348;2023-02-28T16:15:19;8.10;80.80
21582;DHT22;10952;50.836;4.348;2023-02-28T16:17:47;8.10;81.40
21582;DHT22;10952;50.836;4.348;2023-02-28T16:20:32;8.20;81.40
21582;DHT22;10952;50.836;4.348;2023-02-28T16:22:58;8.10;81.10
21582;DHT22;10952;50.836;4.348;2023-02-28T16:28:00;8.10;81.00
21582;DHT22;10952;50.836;4.348;2023-02-28T16:30:27;7.90;81.80
21582;DHT22;10952;50.836;4.348;2023-02-28T16:32:55;7.60;82.30
21582;DHT22;10952;50.836;4.348;2023-02-28T16:35:21;7.50;83.50
21582;DHT22;10952;50.836;4.348;2023-02-28T16:37:47;7.60;83.70
21582;DHT22;10952;50.836;4.348;2023-02-28T16:40:24;7.50;83.80
21582;DHT22;10952;50.836;4.348;2023-02-28T16:42:52;7.50;84.20
21582;DHT22;10952;50.836;4.348;2023-02-28T16:45:24;7.60;84.70
21582;DHT22;10952;50.836;4.348;2023-02-28T16:47:50;7.60;84.90
21582;DHT22;10952;50.836;4.348;2023-02-28T16:50:25;7.50;84.10
21582;DHT22;10952;50.836;4.348;2023-02-28T16:52:51;7.40;84.20
21582;DHT22;10952;50.836;4.348;2023-02-28T16:55:20;7.60;84.40
21582;DHT22;10952;50.836;4.348;2023-02-28T16:57:57;7.60;84.10
21582;DHT22;10952;50.836;4.348;2023-02-28T17:00:25;7.20;84.80
21582;DHT22;10952;50.836;4.348;2023-02-28T17:02:51;7.20;85.00
21582;DHT22;10952;50.836;4.348;2023-02-28T17:05:17;7.00;85.60
21582;DHT22;10952;50.836;4.348;2023-02-28T17:07:44;7.00;86.20
21582;DHT22;10952;50.836;4.348;2023-02-28T17:10:19;7.10;86.20
21582;DHT22;10952;50.836;4.348;2023-02-28T17:12:45;7.10;86.30
21582;DHT22;10952;50.836;4.348;2023-02-28T17:15:13;7.10;86.20
21582;DHT22;10952;50.836;4.348;2023-02-28T17:17:42;7.30;86.80
21582;DHT22;10952;50.836;4.348;2023-02-28T17:20:19;7.00;86.60
21582;DHT22;10952;50.836;4.348;2023-02-28T17:22:50;6.90;87.20
21582;DHT22;10952;50.836;4.348;2023-02-28T17:25:15;6.70;87.80
21582;DHT22;10952;50.836;4.348;2023-02-28T17:27:42;6.60;88.00
21582;DHT22;10952;50.836;4.348;2023-02-28T17:30:26;6.70;87.90
21582;DHT22;10952;50.836;4.348;2023-02-28T17:32:56;6.60;88.40
21582;DHT22;10952;50.836;4.348;2023-02-28T17:35:23;6.50;89.40
21582;DHT22;10952;50.836;4.348;2023-02-28T17:37:49;6.70;89.10
21582;DHT22;10952;50.836;4.348;2023-02-28T17:40:18;6.70;89.10
21582;DHT22;10952;50.836;4.348;2023-02-28T17:42:44;6.70;88.80
21582;DHT22;10952;50.836;4.348;2023-02-28T17:45:12;6.70;88.70
21582;DHT22;10952;50.836;4.348;2023-02-28T17:47:38;6.50;89.30
21582;DHT22;10952;50.836;4.348;2023-02-28T17:50:05;6.60;89.50
21582;DHT22;10952;50.836;4.348;2023-02-28T17:52:31;6.50;89.80
21582;DHT22;10952;50.836;4.348;2023-02-28T17:55:02;6.50;90.10
21582;DHT22;10952;50.836;4.348;2023-02-28T17:57:28;6.60;90.50
21582;DHT22;10952;50.836;4.348;2023-02-28T17:59:56;6.50;90.10
21582;DHT22;10952;50.836;4.348;2023-02-28T18:02:23;6.40;90.30
21582;DHT22;10952;50.836;4.348;2023-02-28T18:04:51;6.50;90.40
21582;DHT22;10952;50.836;4.348;2023-02-28T18:07:19;6.40;90.30
21582;DHT22;10952;50.836;4.348;2023-02-28T18:09:47;6.40;90.40
21582;DHT22;10952;50.836;4.348;2023-02-28T18:12:13;6.40;90.40
21582;DHT22;10952;50.836;4.348;2023-02-28T18:14:48;6.50;90.50
21582;DHT22;10952;50.836;4.348;2023-02-28T18:17:20;6.60;90.80
21582;DHT22;10952;50.836;4.348;2023-02-28T18:19:49;6.40;90.60
21582;DHT22;10952;50.836;4.348;2023-02-28T18:22:14;6.40;90.80
21582;DHT22;10952;50.836;4.348;2023-02-28T18:24:41;6.40;90.90
21582;DHT22;10952;50.836;4.348;2023-02-28T18:27:06;6.40;90.90
21582;DHT22;10952;50.836;4.348;2023-02-28T18:29:32;6.40;91.20
21582;DHT22;10952;50.836;4.348;2023-02-28T18:31:58;6.60;91.40
21582;DHT22;10952;50.836;4.348;2023-02-28T18:34:24;6.40;91.30
21582;DHT22;10952;50.836;4.348;2023-02-28T18:36:51;6.30;91.40
21582;DHT22;10952;50.836;4.348;2023-02-28T18:39:20;6.40;91.60
21582;DHT22;10952;50.836;4.348;2023-02-28T18:41:46;6.30;91.50
21582;DHT22;10952;50.836;4.348;2023-02-28T18:44:15;6.40;91.60
21582;DHT22;10952;50.836;4.348;2023-02-28T18:46:44;6.40;91.50
21582;DHT22;10952;50.836;4.348;2023-02-28T18:49:13;6.30;91.60
21582;DHT22;10952;50.836;4.348;2023-02-28T18:51:41;6.30;91.40